Mount Pleasant, TX

3:43 PM CST on December 17, 2014 (GMT -0600)
Union Hill Road at CR 4640 | Change Station
CLOSE
Current Station
Personal Weather Station
Location: Mount Pleasant, TX
Elevation: 425 ft
Nearby Weather Stations

Elev 425 ft 33.09 °N, 94.90 °W | Updated 1 second ago

Overcast
Overcast
43.4 °F
Feels Like 39 °F
N
7.0
Wind Variable Wind from ENE
Gusts 9.0 mph

Today
High -- | Low -- °F
--% Chance of Precip.
Yesterday
High -- | Low -- °F
Precip. -- in
7:17 AM 5:15 PM
Waning Crescent, 19% visible
Pressure 30.19 in
Visibility 10.0 miles
Clouds Mostly Cloudy 5000 ft
Overcast 7000 ft
Windchill 39 °F
Dew Point 37 °F
Humidity 79%
Rainfall 0.00 in
Snow Depth Not available.
UV 0 out of 12
Pollen 1.90 out of 12
Air Quality Not available.
Flu Activity Not available.
METAR KOSA 172135Z AUTO 11008KT 10SM BKN050 OVC070 06/02 A3019 RMK AO1 T00620017

More Conditions Fewer Conditions

Pressure 30.19 in
Visibility 10.0 miles
Clouds Mostly Cloudy 5000 ft
Overcast 7000 ft
Windchill 39 °F
Dew Point 37 °F
Humidity 79%
Rainfall 0.00 in
Snow Depth Not available.
UV 0 out of 12
Pollen 1.90 out of 12
Air Quality Not available.
Flu Activity Not available.
METAR KOSA 172135Z AUTO 11008KT 10SM BKN050 OVC070 06/02 A3019 RMK AO1 T00620017

More Conditions Fewer Conditions

Nowcast | as of 2:55 PM CST on December 17, 2014

Scattered showers are moving northeastward across East Texas... southeast Oklahoma...and southwest Arkansas at 40 mph. Rainfall amounts less than a tenth of an inch can be expected over the next couple of hours.

×

10-Day Weather Forecast

Almanac

Astronomy

Dec. 17, 2014 Rise Set
Actual Time
Civil Twilight
Nautical Twilight
Astronomical Twilight
Moon
Length of Visible Light
Length of Day
Tomorrow will be .
, % of the Moon is Illuminated

Today's Extremes

State Highs State Lows

Community

WunderPhotos

Upload Photos

1,778,807 photos uploaded!

WunderBlogs® & News

Nearby

Air Quality

  Air Quality AQ Index Pollutant
Not available.

Snow Depth

Station Depth Elevation

Earthquake Activity

City Distance Mag. Time & Date
Minimum magnitude displayed is 2.5.

Coastal Water Temperatures

Place Temperature

Nearby Weather Stations